sensor_id;sensor_type;location;lat;lon;timestamp;P1;durP1;ratioP1;P2;durP2;ratioP2
69910;SDS011;57194;50.156;14.518;2022-09-03T00:00:21;2.72;;;1.30;;
69910;SDS011;57194;50.156;14.518;2022-09-03T00:03:07;3.53;;;1.23;;
69910;SDS011;57194;50.156;14.518;2022-09-03T00:11:02;3.63;;;1.30;;
69910;SDS011;57194;50.156;14.518;2022-09-03T00:16:27;4.10;;;1.33;;
69910;SDS011;57194;50.156;14.518;2022-09-03T00:18:58;2.90;;;1.27;;
69910;SDS011;57194;50.156;14.518;2022-09-03T00:24:02;2.83;;;1.50;;
69910;SDS011;57194;50.156;14.518;2022-09-03T00:26:30;3.63;;;1.42;;
69910;SDS011;57194;50.156;14.518;2022-09-03T00:29:06;3.60;;;1.57;;
69910;SDS011;57194;50.156;14.518;2022-09-03T00:31:42;4.78;;;1.40;;
69910;SDS011;57194;50.156;14.518;2022-09-03T00:36:53;3.92;;;1.33;;
69910;SDS011;57194;50.156;14.518;2022-09-03T00:39:20;3.00;;;1.37;;
69910;SDS011;57194;50.156;14.518;2022-09-03T00:55:51;4.72;;;1.73;;
69910;SDS011;57194;50.156;14.518;2022-09-03T01:07:00;4.63;;;1.75;;
69910;SDS011;57194;50.156;14.518;2022-09-03T01:09:52;5.13;;;1.70;;
69910;SDS011;57194;50.156;14.518;2022-09-03T01:18:29;3.07;;;1.53;;
69910;SDS011;57194;50.156;14.518;2022-09-03T01:29:08;6.03;;;1.90;;
69910;SDS011;57194;50.156;14.518;2022-09-03T01:31:55;3.53;;;1.70;;
69910;SDS011;57194;50.156;14.518;2022-09-03T01:45:24;4.37;;;1.90;;
69910;SDS011;57194;50.156;14.518;2022-09-03T01:50:52;4.90;;;1.80;;
69910;SDS011;57194;50.156;14.518;2022-09-03T01:59:01;3.43;;;1.83;;
69910;SDS011;57194;50.156;14.518;2022-09-03T02:04:31;4.55;;;2.28;;
69910;SDS011;57194;50.156;14.518;2022-09-03T02:06:57;4.57;;;1.90;;
69910;SDS011;57194;50.156;14.518;2022-09-03T02:09:25;3.45;;;2.00;;
69910;SDS011;57194;50.156;14.518;2022-09-03T02:11:53;4.65;;;1.90;;
69910;SDS011;57194;50.156;14.518;2022-09-03T02:14:32;3.40;;;2.00;;
69910;SDS011;57194;50.156;14.518;2022-09-03T02:17:00;3.80;;;1.90;;
69910;SDS011;57194;50.156;14.518;2022-09-03T02:19:26;4.25;;;2.22;;
69910;SDS011;57194;50.156;14.518;2022-09-03T02:21:54;5.60;;;1.90;;
69910;SDS011;57194;50.156;14.518;2022-09-03T02:24:21;4.72;;;2.10;;
69910;SDS011;57194;50.156;14.518;2022-09-03T02:26:47;4.50;;;2.07;;
69910;SDS011;57194;50.156;14.518;2022-09-03T02:29:14;4.90;;;1.95;;
69910;SDS011;57194;50.156;14.518;2022-09-03T02:31:41;4.28;;;1.95;;
69910;SDS011;57194;50.156;14.518;2022-09-03T02:34:07;4.95;;;1.90;;
69910;SDS011;57194;50.156;14.518;2022-09-03T02:36:34;3.77;;;2.00;;
69910;SDS011;57194;50.156;14.518;2022-09-03T02:39:02;4.18;;;2.22;;
69910;SDS011;57194;50.156;14.518;2022-09-03T02:41:29;3.75;;;2.15;;
69910;SDS011;57194;50.156;14.518;2022-09-03T02:46:51;5.05;;;2.20;;
69910;SDS011;57194;50.156;14.518;2022-09-03T02:49:20;5.18;;;2.30;;
69910;SDS011;57194;50.156;14.518;2022-09-03T02:51:46;4.03;;;2.30;;
69910;SDS011;57194;50.156;14.518;2022-09-03T02:54:11;4.23;;;2.20;;
69910;SDS011;57194;50.156;14.518;2022-09-03T02:56:38;5.03;;;2.30;;
69910;SDS011;57194;50.156;14.518;2022-09-03T02:59:03;4.57;;;2.10;;
69910;SDS011;57194;50.156;14.518;2022-09-03T03:01:30;4.03;;;1.97;;
69910;SDS011;57194;50.156;14.518;2022-09-03T03:03:56;5.35;;;2.20;;
69910;SDS011;57194;50.156;14.518;2022-09-03T03:06:21;5.87;;;2.30;;
69910;SDS011;57194;50.156;14.518;2022-09-03T03:08:47;3.73;;;2.10;;
69910;SDS011;57194;50.156;14.518;2022-09-03T03:11:14;4.32;;;2.08;;
69910;SDS011;57194;50.156;14.518;2022-09-03T03:13:44;4.03;;;2.00;;
69910;SDS011;57194;50.156;14.518;2022-09-03T03:16:10;3.70;;;2.03;;
69910;SDS011;57194;50.156;14.518;2022-09-03T03:18:37;4.63;;;2.07;;
69910;SDS011;57194;50.156;14.518;2022-09-03T03:21:06;3.58;;;1.85;;
69910;SDS011;57194;50.156;14.518;2022-09-03T03:23:34;5.70;;;1.92;;
69910;SDS011;57194;50.156;14.518;2022-09-03T03:26:03;4.97;;;2.13;;
69910;SDS011;57194;50.156;14.518;2022-09-03T03:28:31;5.60;;;2.20;;
69910;SDS011;57194;50.156;14.518;2022-09-03T03:30:58;4.60;;;2.30;;
69910;SDS011;57194;50.156;14.518;2022-09-03T03:33:29;4.80;;;2.10;;
69910;SDS011;57194;50.156;14.518;2022-09-03T03:35:54;3.47;;;2.10;;
69910;SDS011;57194;50.156;14.518;2022-09-03T03:38:20;3.40;;;2.10;;
69910;SDS011;57194;50.156;14.518;2022-09-03T03:40:45;3.03;;;1.90;;
69910;SDS011;57194;50.156;14.518;2022-09-03T03:43:11;4.30;;;2.15;;
69910;SDS011;57194;50.156;14.518;2022-09-03T03:45:36;5.27;;;2.53;;
69910;SDS011;57194;50.156;14.518;2022-09-03T03:48:02;5.40;;;2.23;;
69910;SDS011;57194;50.156;14.518;2022-09-03T03:50:27;5.70;;;2.17;;
69910;SDS011;57194;50.156;14.518;2022-09-03T03:52:52;5.43;;;2.47;;
69910;SDS011;57194;50.156;14.518;2022-09-03T03:55:18;3.37;;;1.93;;
69910;SDS011;57194;50.156;14.518;2022-09-03T03:57:43;4.77;;;2.40;;
69910;SDS011;57194;50.156;14.518;2022-09-03T04:00:09;5.53;;;2.40;;
69910;SDS011;57194;50.156;14.518;2022-09-03T04:02:34;4.32;;;2.40;;
69910;SDS011;57194;50.156;14.518;2022-09-03T04:04:59;4.63;;;2.50;;
69910;SDS011;57194;50.156;14.518;2022-09-03T04:07:25;5.73;;;2.13;;
69910;SDS011;57194;50.156;14.518;2022-09-03T04:09:50;4.70;;;2.20;;
69910;SDS011;57194;50.156;14.518;2022-09-03T04:12:16;5.70;;;2.50;;
69910;SDS011;57194;50.156;14.518;2022-09-03T04:14:43;4.75;;;2.40;;
69910;SDS011;57194;50.156;14.518;2022-09-03T04:17:08;5.90;;;2.40;;
69910;SDS011;57194;50.156;14.518;2022-09-03T04:19:33;4.70;;;2.47;;
69910;SDS011;57194;50.156;14.518;2022-09-03T04:21:59;4.05;;;2.25;;
69910;SDS011;57194;50.156;14.518;2022-09-03T04:24:24;5.47;;;2.83;;
69910;SDS011;57194;50.156;14.518;2022-09-03T04:26:51;3.57;;;1.93;;
69910;SDS011;57194;50.156;14.518;2022-09-03T04:29:17;5.45;;;2.30;;
69910;SDS011;57194;50.156;14.518;2022-09-03T04:31:43;6.93;;;2.37;;
69910;SDS011;57194;50.156;14.518;2022-09-03T04:34:28;4.68;;;2.25;;
69910;SDS011;57194;50.156;14.518;2022-09-03T04:36:54;3.73;;;2.00;;
69910;SDS011;57194;50.156;14.518;2022-09-03T04:39:21;4.40;;;2.10;;
69910;SDS011;57194;50.156;14.518;2022-09-03T04:41:47;3.80;;;2.00;;
69910;SDS011;57194;50.156;14.518;2022-09-03T04:44:12;10.23;;;2.50;;
69910;SDS011;57194;50.156;14.518;2022-09-03T04:46:38;3.25;;;2.20;;
69910;SDS011;57194;50.156;14.518;2022-09-03T04:49:04;4.73;;;2.07;;
69910;SDS011;57194;50.156;14.518;2022-09-03T04:51:31;3.45;;;1.80;;
69910;SDS011;57194;50.156;14.518;2022-09-03T04:53:57;4.10;;;2.17;;
69910;SDS011;57194;50.156;14.518;2022-09-03T04:56:26;6.20;;;2.17;;
69910;SDS011;57194;50.156;14.518;2022-09-03T04:58:54;4.13;;;1.92;;
69910;SDS011;57194;50.156;14.518;2022-09-03T05:01:25;3.47;;;1.83;;
69910;SDS011;57194;50.156;14.518;2022-09-03T05:03:52;5.35;;;1.90;;
69910;SDS011;57194;50.156;14.518;2022-09-03T05:06:18;4.40;;;1.80;;
69910;SDS011;57194;50.156;14.518;2022-09-03T05:08:47;4.20;;;2.30;;
69910;SDS011;57194;50.156;14.518;2022-09-03T05:11:13;4.78;;;1.92;;
69910;SDS011;57194;50.156;14.518;2022-09-03T05:13:39;3.97;;;2.00;;
69910;SDS011;57194;50.156;14.518;2022-09-03T05:16:08;6.70;;;2.00;;
69910;SDS011;57194;50.156;14.518;2022-09-03T05:18:35;3.97;;;1.90;;
69910;SDS011;57194;50.156;14.518;2022-09-03T05:21:02;3.65;;;1.80;;
69910;SDS011;57194;50.156;14.518;2022-09-03T05:23:28;5.80;;;1.92;;
69910;SDS011;57194;50.156;14.518;2022-09-03T05:25:58;4.93;;;2.00;;
69910;SDS011;57194;50.156;14.518;2022-09-03T05:28:25;5.95;;;1.77;;
69910;SDS011;57194;50.156;14.518;2022-09-03T05:30:59;3.15;;;1.48;;
69910;SDS011;57194;50.156;14.518;2022-09-03T05:33:25;4.28;;;1.90;;
69910;SDS011;57194;50.156;14.518;2022-09-03T05:35:51;3.60;;;2.03;;
69910;SDS011;57194;50.156;14.518;2022-09-03T05:38:17;4.30;;;1.80;;
69910;SDS011;57194;50.156;14.518;2022-09-03T05:40:43;3.72;;;1.90;;
69910;SDS011;57194;50.156;14.518;2022-09-03T05:43:08;3.80;;;2.00;;
69910;SDS011;57194;50.156;14.518;2022-09-03T05:45:34;5.20;;;1.90;;
69910;SDS011;57194;50.156;14.518;2022-09-03T05:48:00;6.22;;;2.10;;
69910;SDS011;57194;50.156;14.518;2022-09-03T05:50:26;3.80;;;1.80;;
69910;SDS011;57194;50.156;14.518;2022-09-03T05:52:51;4.03;;;1.90;;
69910;SDS011;57194;50.156;14.518;2022-09-03T05:55:17;7.00;;;2.47;;
69910;SDS011;57194;50.156;14.518;2022-09-03T05:57:43;4.07;;;1.80;;
69910;SDS011;57194;50.156;14.518;2022-09-03T06:00:10;11.07;;;2.20;;
69910;SDS011;57194;50.156;14.518;2022-09-03T06:02:36;4.87;;;1.93;;
69910;SDS011;57194;50.156;14.518;2022-09-03T06:05:01;6.10;;;1.88;;
69910;SDS011;57194;50.156;14.518;2022-09-03T06:07:27;4.13;;;1.80;;
69910;SDS011;57194;50.156;14.518;2022-09-03T06:09:53;3.70;;;1.85;;
69910;SDS011;57194;50.156;14.518;2022-09-03T06:12:18;4.70;;;1.90;;
69910;SDS011;57194;50.156;14.518;2022-09-03T06:14:44;4.43;;;2.10;;
69910;SDS011;57194;50.156;14.518;2022-09-03T06:17:09;4.60;;;1.97;;
69910;SDS011;57194;50.156;14.518;2022-09-03T06:19:39;5.05;;;2.00;;
69910;SDS011;57194;50.156;14.518;2022-09-03T06:22:04;3.97;;;2.05;;
69910;SDS011;57194;50.156;14.518;2022-09-03T06:24:30;4.80;;;1.93;;
69910;SDS011;57194;50.156;14.518;2022-09-03T06:26:55;3.53;;;1.90;;
69910;SDS011;57194;50.156;14.518;2022-09-03T06:29:21;5.57;;;2.15;;
69910;SDS011;57194;50.156;14.518;2022-09-03T06:31:46;5.33;;;2.40;;
69910;SDS011;57194;50.156;14.518;2022-09-03T06:34:15;9.30;;;2.08;;
69910;SDS011;57194;50.156;14.518;2022-09-03T06:36:42;5.60;;;2.15;;
69910;SDS011;57194;50.156;14.518;2022-09-03T06:39:08;4.63;;;2.10;;
69910;SDS011;57194;50.156;14.518;2022-09-03T06:41:33;4.50;;;2.03;;
69910;SDS011;57194;50.156;14.518;2022-09-03T06:44:06;3.45;;;1.83;;
69910;SDS011;57194;50.156;14.518;2022-09-03T06:46:35;5.40;;;1.95;;
69910;SDS011;57194;50.156;14.518;2022-09-03T06:49:06;5.40;;;1.95;;
69910;SDS011;57194;50.156;14.518;2022-09-03T06:51:32;4.40;;;2.30;;
69910;SDS011;57194;50.156;14.518;2022-09-03T06:54:02;5.97;;;2.33;;
69910;SDS011;57194;50.156;14.518;2022-09-03T06:56:32;6.55;;;2.28;;
69910;SDS011;57194;50.156;14.518;2022-09-03T06:59:02;9.35;;;2.25;;
69910;SDS011;57194;50.156;14.518;2022-09-03T07:01:29;4.73;;;2.00;;
69910;SDS011;57194;50.156;14.518;2022-09-03T07:04:01;6.25;;;2.40;;
69910;SDS011;57194;50.156;14.518;2022-09-03T07:06:28;6.75;;;2.22;;
69910;SDS011;57194;50.156;14.518;2022-09-03T07:08:56;4.53;;;1.92;;
69910;SDS011;57194;50.156;14.518;2022-09-03T07:11:24;5.57;;;2.10;;
69910;SDS011;57194;50.156;14.518;2022-09-03T07:13:51;5.20;;;2.07;;
69910;SDS011;57194;50.156;14.518;2022-09-03T07:18:45;6.18;;;1.90;;
69910;SDS011;57194;50.156;14.518;2022-09-03T07:21:12;4.50;;;2.30;;
69910;SDS011;57194;50.156;14.518;2022-09-03T07:23:39;3.83;;;1.90;;
69910;SDS011;57194;50.156;14.518;2022-09-03T07:26:07;4.05;;;1.90;;
69910;SDS011;57194;50.156;14.518;2022-09-03T07:28:36;4.05;;;1.80;;
69910;SDS011;57194;50.156;14.518;2022-09-03T07:31:03;4.57;;;2.00;;
69910;SDS011;57194;50.156;14.518;2022-09-03T07:33:31;4.30;;;1.67;;
69910;SDS011;57194;50.156;14.518;2022-09-03T07:36:02;4.68;;;1.70;;
69910;SDS011;57194;50.156;14.518;2022-09-03T07:38:32;5.65;;;2.17;;
69910;SDS011;57194;50.156;14.518;2022-09-03T07:40:59;6.57;;;1.90;;
69910;SDS011;57194;50.156;14.518;2022-09-03T07:43:26;4.10;;;1.88;;
69910;SDS011;57194;50.156;14.518;2022-09-03T07:45:53;6.40;;;2.00;;
69910;SDS011;57194;50.156;14.518;2022-09-03T07:48:21;3.75;;;1.83;;
69910;SDS011;57194;50.156;14.518;2022-09-03T07:50:46;4.85;;;2.00;;
69910;SDS011;57194;50.156;14.518;2022-09-03T07:53:12;3.80;;;1.75;;
69910;SDS011;57194;50.156;14.518;2022-09-03T07:55:39;4.35;;;2.00;;
69910;SDS011;57194;50.156;14.518;2022-09-03T07:58:04;3.80;;;1.70;;
69910;SDS011;57194;50.156;14.518;2022-09-03T08:00:30;7.90;;;1.83;;
69910;SDS011;57194;50.156;14.518;2022-09-03T08:02:57;3.60;;;1.75;;
69910;SDS011;57194;50.156;14.518;2022-09-03T08:05:30;5.22;;;2.10;;
69910;SDS011;57194;50.156;14.518;2022-09-03T08:07:58;5.00;;;1.85;;
69910;SDS011;57194;50.156;14.518;2022-09-03T08:10:24;7.13;;;2.20;;
69910;SDS011;57194;50.156;14.518;2022-09-03T08:12:52;7.20;;;1.90;;
69910;SDS011;57194;50.156;14.518;2022-09-03T08:15:17;6.83;;;1.90;;
69910;SDS011;57194;50.156;14.518;2022-09-03T08:17:43;4.17;;;2.00;;
69910;SDS011;57194;50.156;14.518;2022-09-03T08:20:09;6.10;;;1.73;;
69910;SDS011;57194;50.156;14.518;2022-09-03T08:22:34;3.70;;;1.80;;
69910;SDS011;57194;50.156;14.518;2022-09-03T08:25:01;4.20;;;1.65;;
69910;SDS011;57194;50.156;14.518;2022-09-03T08:27:26;8.90;;;2.20;;
69910;SDS011;57194;50.156;14.518;2022-09-03T08:29:53;4.07;;;2.00;;
69910;SDS011;57194;50.156;14.518;2022-09-03T08:32:18;4.32;;;1.60;;
69910;SDS011;57194;50.156;14.518;2022-09-03T08:34:44;4.30;;;1.90;;
69910;SDS011;57194;50.156;14.518;2022-09-03T08:37:09;3.77;;;1.63;;
69910;SDS011;57194;50.156;14.518;2022-09-03T08:39:35;6.03;;;1.83;;
69910;SDS011;57194;50.156;14.518;2022-09-03T08:44:46;3.63;;;1.73;;
69910;SDS011;57194;50.156;14.518;2022-09-03T08:57:39;3.08;;;1.77;;
69910;SDS011;57194;50.156;14.518;2022-09-03T09:00:09;6.53;;;1.90;;
69910;SDS011;57194;50.156;14.518;2022-09-03T09:05:43;7.15;;;1.90;;
69910;SDS011;57194;50.156;14.518;2022-09-03T09:10:45;3.15;;;1.70;;
69910;SDS011;57194;50.156;14.518;2022-09-03T09:13:24;5.05;;;2.00;;
69910;SDS011;57194;50.156;14.518;2022-09-03T09:16:10;4.90;;;1.73;;
69910;SDS011;57194;50.156;14.518;2022-09-03T09:21:30;4.78;;;1.60;;
69910;SDS011;57194;50.156;14.518;2022-09-03T09:24:18;3.85;;;1.80;;
69910;SDS011;57194;50.156;14.518;2022-09-03T09:26:47;4.32;;;2.10;;
69910;SDS011;57194;50.156;14.518;2022-09-03T09:29:22;4.70;;;1.67;;
69910;SDS011;57194;50.156;14.518;2022-09-03T09:31:52;5.20;;;1.80;;
69910;SDS011;57194;50.156;14.518;2022-09-03T09:34:18;3.07;;;1.47;;
69910;SDS011;57194;50.156;14.518;2022-09-03T09:36:47;4.73;;;1.73;;
69910;SDS011;57194;50.156;14.518;2022-09-03T09:39:17;7.72;;;1.90;;
69910;SDS011;57194;50.156;14.518;2022-09-03T09:41:53;5.95;;;1.65;;
69910;SDS011;57194;50.156;14.518;2022-09-03T09:44:33;5.77;;;2.03;;
69910;SDS011;57194;50.156;14.518;2022-09-03T09:47:11;5.15;;;1.58;;
69910;SDS011;57194;50.156;14.518;2022-09-03T09:49:56;6.35;;;1.80;;
69910;SDS011;57194;50.156;14.518;2022-09-03T09:52:24;4.00;;;1.63;;
69910;SDS011;57194;50.156;14.518;2022-09-03T09:54:52;4.82;;;1.70;;
69910;SDS011;57194;50.156;14.518;2022-09-03T09:57:31;7.63;;;1.60;;
69910;SDS011;57194;50.156;14.518;2022-09-03T10:00:06;5.63;;;1.87;;
69910;SDS011;57194;50.156;14.518;2022-09-03T10:02:37;6.88;;;1.90;;
69910;SDS011;57194;50.156;14.518;2022-09-03T10:05:19;5.38;;;1.60;;
69910;SDS011;57194;50.156;14.518;2022-09-03T10:07:57;3.90;;;1.50;;
69910;SDS011;57194;50.156;14.518;2022-09-03T10:10:28;4.78;;;1.80;;
69910;SDS011;57194;50.156;14.518;2022-09-03T10:15:56;3.92;;;1.80;;
69910;SDS011;57194;50.156;14.518;2022-09-03T10:18:38;3.22;;;1.40;;
69910;SDS011;57194;50.156;14.518;2022-09-03T10:21:11;6.68;;;1.95;;
69910;SDS011;57194;50.156;14.518;2022-09-03T10:24:14;4.82;;;1.50;;
69910;SDS011;57194;50.156;14.518;2022-09-03T10:27:05;4.05;;;1.85;;
69910;SDS011;57194;50.156;14.518;2022-09-03T10:29:36;3.77;;;1.70;;
69910;SDS011;57194;50.156;14.518;2022-09-03T10:37:49;5.03;;;1.92;;
69910;SDS011;57194;50.156;14.518;2022-09-03T10:48:34;4.25;;;1.70;;
69910;SDS011;57194;50.156;14.518;2022-09-03T10:51:19;7.28;;;1.80;;
69910;SDS011;57194;50.156;14.518;2022-09-03T10:54:14;4.20;;;1.73;;
69910;SDS011;57194;50.156;14.518;2022-09-03T10:59:56;3.92;;;1.77;;
69910;SDS011;57194;50.156;14.518;2022-09-03T11:05:06;4.60;;;1.70;;
69910;SDS011;57194;50.156;14.518;2022-09-03T11:07:44;4.55;;;1.70;;
69910;SDS011;57194;50.156;14.518;2022-09-03T11:10:17;4.25;;;1.60;;
69910;SDS011;57194;50.156;14.518;2022-09-03T11:15:54;3.40;;;1.30;;
69910;SDS011;57194;50.156;14.518;2022-09-03T11:18:28;5.65;;;1.63;;
69910;SDS011;57194;50.156;14.518;2022-09-03T11:21:00;3.50;;;1.40;;
69910;SDS011;57194;50.156;14.518;2022-09-03T11:23:30;5.20;;;1.60;;
69910;SDS011;57194;50.156;14.518;2022-09-03T11:26:03;4.07;;;1.70;;
69910;SDS011;57194;50.156;14.518;2022-09-03T11:28:51;6.00;;;1.70;;
69910;SDS011;57194;50.156;14.518;2022-09-03T11:31:24;4.57;;;1.60;;
69910;SDS011;57194;50.156;14.518;2022-09-03T11:34:15;4.38;;;1.85;;
69910;SDS011;57194;50.156;14.518;2022-09-03T11:36:51;4.18;;;1.40;;
69910;SDS011;57194;50.156;14.518;2022-09-03T11:39:37;4.83;;;1.80;;
69910;SDS011;57194;50.156;14.518;2022-09-03T11:42:07;5.72;;;1.50;;
69910;SDS011;57194;50.156;14.518;2022-09-03T11:44:49;3.22;;;1.48;;
69910;SDS011;57194;50.156;14.518;2022-09-03T11:47:20;4.07;;;1.10;;
69910;SDS011;57194;50.156;14.518;2022-09-03T11:50:06;3.38;;;1.30;;
69910;SDS011;57194;50.156;14.518;2022-09-03T11:52:51;2.90;;;1.30;;
69910;SDS011;57194;50.156;14.518;2022-09-03T11:58:18;4.15;;;1.50;;
69910;SDS011;57194;50.156;14.518;2022-09-03T12:01:11;4.35;;;1.60;;
69910;SDS011;57194;50.156;14.518;2022-09-03T12:04:00;3.08;;;1.20;;
69910;SDS011;57194;50.156;14.518;2022-09-03T12:19:54;3.10;;;0.90;;
69910;SDS011;57194;50.156;14.518;2022-09-03T12:22:25;4.78;;;1.38;;
69910;SDS011;57194;50.156;14.518;2022-09-03T12:24:53;3.38;;;1.30;;
69910;SDS011;57194;50.156;14.518;2022-09-03T12:27:25;3.17;;;1.10;;
69910;SDS011;57194;50.156;14.518;2022-09-03T12:30:01;5.67;;;1.23;;
69910;SDS011;57194;50.156;14.518;2022-09-03T12:32:33;4.53;;;1.10;;
69910;SDS011;57194;50.156;14.518;2022-09-03T12:35:37;4.85;;;1.23;;
69910;SDS011;57194;50.156;14.518;2022-09-03T12:37:55;3.65;;;1.20;;
69910;SDS011;57194;50.156;14.518;2022-09-03T12:40:22;3.67;;;1.40;;
69910;SDS011;57194;50.156;14.518;2022-09-03T12:42:50;4.05;;;1.30;;
69910;SDS011;57194;50.156;14.518;2022-09-03T12:45:19;3.23;;;1.20;;
69910;SDS011;57194;50.156;14.518;2022-09-03T12:47:47;4.47;;;1.42;;
69910;SDS011;57194;50.156;14.518;2022-09-03T12:50:13;3.43;;;1.40;;
69910;SDS011;57194;50.156;14.518;2022-09-03T12:55:44;2.60;;;1.05;;
69910;SDS011;57194;50.156;14.518;2022-09-03T12:58:12;3.75;;;1.38;;
69910;SDS011;57194;50.156;14.518;2022-09-03T13:00:41;4.43;;;1.40;;
69910;SDS011;57194;50.156;14.518;2022-09-03T13:03:13;4.50;;;1.50;;
69910;SDS011;57194;50.156;14.518;2022-09-03T13:05:44;4.05;;;1.60;;
69910;SDS011;57194;50.156;14.518;2022-09-03T13:08:25;4.57;;;1.40;;
69910;SDS011;57194;50.156;14.518;2022-09-03T13:10:55;4.80;;;1.40;;
69910;SDS011;57194;50.156;14.518;2022-09-03T13:13:24;5.35;;;1.52;;
69910;SDS011;57194;50.156;14.518;2022-09-03T13:16:01;4.67;;;1.43;;
69910;SDS011;57194;50.156;14.518;2022-09-03T13:18:40;6.10;;;1.52;;
69910;SDS011;57194;50.156;14.518;2022-09-03T13:32:01;3.03;;;1.50;;
69910;SDS011;57194;50.156;14.518;2022-09-03T13:34:39;3.30;;;1.38;;
69910;SDS011;57194;50.156;14.518;2022-09-03T13:40:18;4.63;;;1.60;;
69910;SDS011;57194;50.156;14.518;2022-09-03T13:42:51;3.53;;;1.50;;
69910;SDS011;57194;50.156;14.518;2022-09-03T13:45:40;7.18;;;1.80;;
69910;SDS011;57194;50.156;14.518;2022-09-03T13:48:12;4.97;;;1.70;;
69910;SDS011;57194;50.156;14.518;2022-09-03T13:51:06;6.57;;;1.58;;
69910;SDS011;57194;50.156;14.518;2022-09-03T13:53:57;7.80;;;1.70;;
69910;SDS011;57194;50.156;14.518;2022-09-03T13:56:43;4.60;;;1.90;;
69910;SDS011;57194;50.156;14.518;2022-09-03T14:04:50;3.95;;;1.60;;
69910;SDS011;57194;50.156;14.518;2022-09-03T14:10:22;3.83;;;1.63;;
69910;SDS011;57194;50.156;14.518;2022-09-03T14:13:17;3.27;;;1.43;;
69910;SDS011;57194;50.156;14.518;2022-09-03T14:26:55;4.03;;;1.43;;
69910;SDS011;57194;50.156;14.518;2022-09-03T14:29:26;4.82;;;1.60;;
69910;SDS011;57194;50.156;14.518;2022-09-03T14:34:44;6.28;;;1.63;;
69910;SDS011;57194;50.156;14.518;2022-09-03T14:47:38;5.03;;;2.03;;
69910;SDS011;57194;50.156;14.518;2022-09-03T14:50:35;5.50;;;1.55;;
69910;SDS011;57194;50.156;14.518;2022-09-03T14:53:14;6.40;;;1.55;;
69910;SDS011;57194;50.156;14.518;2022-09-03T15:01:28;6.30;;;1.70;;
69910;SDS011;57194;50.156;14.518;2022-09-03T15:09:46;4.93;;;1.60;;
69910;SDS011;57194;50.156;14.518;2022-09-03T15:12:24;4.57;;;1.88;;
69910;SDS011;57194;50.156;14.518;2022-09-03T15:15:03;4.93;;;1.63;;
69910;SDS011;57194;50.156;14.518;2022-09-03T15:17:41;3.55;;;1.90;;
69910;SDS011;57194;50.156;14.518;2022-09-03T15:23:24;3.83;;;1.60;;
69910;SDS011;57194;50.156;14.518;2022-09-03T15:32:05;2.85;;;1.50;;
69910;SDS011;57194;50.156;14.518;2022-09-03T15:37:27;4.57;;;1.63;;
69910;SDS011;57194;50.156;14.518;2022-09-03T15:40:00;3.80;;;1.65;;
69910;SDS011;57194;50.156;14.518;2022-09-03T15:42:34;3.40;;;1.50;;
69910;SDS011;57194;50.156;14.518;2022-09-03T15:45:05;3.45;;;1.60;;
69910;SDS011;57194;50.156;14.518;2022-09-03T15:47:47;3.20;;;1.52;;
69910;SDS011;57194;50.156;14.518;2022-09-03T15:50:47;2.80;;;1.33;;
69910;SDS011;57194;50.156;14.518;2022-09-03T15:53:24;4.55;;;1.60;;
69910;SDS011;57194;50.156;14.518;2022-09-03T16:06:46;4.17;;;1.60;;
69910;SDS011;57194;50.156;14.518;2022-09-03T16:17:50;3.85;;;1.60;;
69910;SDS011;57194;50.156;14.518;2022-09-03T16:20:19;4.10;;;1.60;;
69910;SDS011;57194;50.156;14.518;2022-09-03T16:22:50;6.55;;;2.05;;
69910;SDS011;57194;50.156;14.518;2022-09-03T16:28:02;3.95;;;1.50;;
69910;SDS011;57194;50.156;14.518;2022-09-03T16:41:32;5.65;;;1.48;;
69910;SDS011;57194;50.156;14.518;2022-09-03T16:44:19;4.97;;;1.90;;
69910;SDS011;57194;50.156;14.518;2022-09-03T16:58:46;4.28;;;1.92;;
69910;SDS011;57194;50.156;14.518;2022-09-03T17:12:41;7.22;;;2.00;;
69910;SDS011;57194;50.156;14.518;2022-09-03T17:15:15;4.57;;;2.00;;
69910;SDS011;57194;50.156;14.518;2022-09-03T17:26:33;6.43;;;2.17;;
69910;SDS011;57194;50.156;14.518;2022-09-03T17:31:55;3.65;;;1.70;;
69910;SDS011;57194;50.156;14.518;2022-09-03T17:43:34;5.18;;;2.15;;
69910;SDS011;57194;50.156;14.518;2022-09-03T17:48:59;5.07;;;1.75;;
69910;SDS011;57194;50.156;14.518;2022-09-03T17:51:35;5.55;;;2.72;;
69910;SDS011;57194;50.156;14.518;2022-09-03T17:54:09;7.83;;;3.10;;
69910;SDS011;57194;50.156;14.518;2022-09-03T17:59:31;6.40;;;2.60;;
69910;SDS011;57194;50.156;14.518;2022-09-03T18:02:07;5.55;;;2.38;;
69910;SDS011;57194;50.156;14.518;2022-09-03T18:04:51;4.70;;;2.08;;
69910;SDS011;57194;50.156;14.518;2022-09-03T18:07:41;6.27;;;1.93;;
69910;SDS011;57194;50.156;14.518;2022-09-03T18:13:02;4.65;;;2.00;;
69910;SDS011;57194;50.156;14.518;2022-09-03T18:15:48;3.42;;;1.73;;
69910;SDS011;57194;50.156;14.518;2022-09-03T18:18:28;5.28;;;1.67;;
69910;SDS011;57194;50.156;14.518;2022-09-03T18:20:56;4.53;;;1.53;;
69910;SDS011;57194;50.156;14.518;2022-09-03T18:23:46;4.80;;;1.88;;
69910;SDS011;57194;50.156;14.518;2022-09-03T18:26:43;6.97;;;1.80;;
69910;SDS011;57194;50.156;14.518;2022-09-03T18:29:46;4.22;;;1.95;;
69910;SDS011;57194;50.156;14.518;2022-09-03T18:32:36;4.45;;;1.90;;
69910;SDS011;57194;50.156;14.518;2022-09-03T18:35:20;5.30;;;1.95;;
69910;SDS011;57194;50.156;14.518;2022-09-03T18:38:05;3.80;;;1.73;;
69910;SDS011;57194;50.156;14.518;2022-09-03T18:40:51;6.88;;;1.90;;
69910;SDS011;57194;50.156;14.518;2022-09-03T18:44:07;5.53;;;1.90;;
69910;SDS011;57194;50.156;14.518;2022-09-03T18:56:55;6.55;;;2.00;;
69910;SDS011;57194;50.156;14.518;2022-09-03T19:05:56;5.05;;;2.00;;
69910;SDS011;57194;50.156;14.518;2022-09-03T19:15:24;5.78;;;2.10;;
69910;SDS011;57194;50.156;14.518;2022-09-03T19:21:28;6.30;;;2.17;;
69910;SDS011;57194;50.156;14.518;2022-09-03T19:24:20;5.97;;;2.00;;
69910;SDS011;57194;50.156;14.518;2022-09-03T19:27:13;5.43;;;2.00;;
69910;SDS011;57194;50.156;14.518;2022-09-03T19:30:20;4.10;;;2.00;;
69910;SDS011;57194;50.156;14.518;2022-09-03T19:33:14;5.50;;;1.90;;
69910;SDS011;57194;50.156;14.518;2022-09-03T19:36:12;5.63;;;2.00;;
69910;SDS011;57194;50.156;14.518;2022-09-03T19:51:12;4.18;;;2.20;;
69910;SDS011;57194;50.156;14.518;2022-09-03T19:54:01;6.53;;;2.60;;
69910;SDS011;57194;50.156;14.518;2022-09-03T19:56:46;7.30;;;2.10;;
69910;SDS011;57194;50.156;14.518;2022-09-03T19:59:34;3.97;;;1.92;;
69910;SDS011;57194;50.156;14.518;2022-09-03T20:02:22;6.63;;;1.90;;
69910;SDS011;57194;50.156;14.518;2022-09-03T20:05:09;4.65;;;2.13;;
69910;SDS011;57194;50.156;14.518;2022-09-03T20:07:58;5.22;;;2.13;;
69910;SDS011;57194;50.156;14.518;2022-09-03T20:10:42;6.57;;;2.38;;
69910;SDS011;57194;50.156;14.518;2022-09-03T20:13:13;3.72;;;2.08;;
69910;SDS011;57194;50.156;14.518;2022-09-03T20:15:49;5.78;;;2.22;;
69910;SDS011;57194;50.156;14.518;2022-09-03T20:18:29;5.55;;;2.50;;
69910;SDS011;57194;50.156;14.518;2022-09-03T20:26:53;6.53;;;2.03;;
69910;SDS011;57194;50.156;14.518;2022-09-03T20:29:29;4.43;;;2.10;;
69910;SDS011;57194;50.156;14.518;2022-09-03T20:32:02;5.40;;;2.10;;
69910;SDS011;57194;50.156;14.518;2022-09-03T20:48:34;4.75;;;1.98;;
69910;SDS011;57194;50.156;14.518;2022-09-03T20:51:23;4.10;;;2.33;;
69910;SDS011;57194;50.156;14.518;2022-09-03T21:08:15;5.23;;;2.10;;
69910;SDS011;57194;50.156;14.518;2022-09-03T21:11:06;6.40;;;2.10;;
69910;SDS011;57194;50.156;14.518;2022-09-03T21:16:43;4.45;;;2.28;;
69910;SDS011;57194;50.156;14.518;2022-09-03T21:19:30;4.82;;;2.45;;
69910;SDS011;57194;50.156;14.518;2022-09-03T21:22:03;4.28;;;2.05;;